Time;durP1;ratioP1;P1;durP2;ratioP2;P2;SDS_P1;SDS_P2;PMS_P1;PMS_P2;Temp;Humidity;BMP_temperature;BMP_pressure;BME280_temperature;BME280_humidity;BME280_pressure;Samples;Min_cycle;Max_cycle;Signal;HPM_P1;HPM_P2
2022/07/19 00:01:45;;;;;;;8.30;4.05;;;;;;;;;;5028661;28;20459;-58
2022/07/19 00:04:11;;;;;;;8.48;4.22;;;;;;;;;;5026277;28;20040;-58
2022/07/19 00:06:37;;;;;;;7.63;4.38;;;;;;;;;;5026754;28;20034;-61
2022/07/19 00:09:03;;;;;;;8.55;4.57;;;;;;;;;;5031091;28;20037;-59
2022/07/19 00:11:29;;;;;;;6.88;3.95;;;;;;;;;;5018211;28;20029;-59
2022/07/19 00:13:55;;;;;;;6.20;4.00;;;;;;;;;;5026105;28;20042;-59
2022/07/19 00:16:21;;;;;;;8.75;4.13;;;;;;;;;;5023858;28;20038;-59
2022/07/19 00:18:47;;;;;;;7.18;4.10;;;;;;;;;;5024902;28;20028;-59
2022/07/19 00:21:13;;;;;;;7.40;4.03;;;;;;;;;;5027190;28;20053;-58
2022/07/19 00:23:39;;;;;;;6.90;3.53;;;;;;;;;;5029874;28;20385;-58
2022/07/19 00:26:06;;;;;;;7.25;4.38;;;;;;;;;;5028463;28;20040;-58
2022/07/19 00:28:32;;;;;;;6.20;3.25;;;;;;;;;;5029985;28;20067;-57
2022/07/19 00:30:58;;;;;;;7.13;3.95;;;;;;;;;;5027976;28;20104;-58
2022/07/19 00:33:24;;;;;;;5.53;3.03;;;;;;;;;;5031108;28;20089;-58
2022/07/19 00:35:50;;;;;;;6.97;4.25;;;;;;;;;;5016762;28;20462;-58
2022/07/19 00:38:16;;;;;;;7.30;3.67;;;;;;;;;;5020555;28;20025;-58
2022/07/19 00:40:43;;;;;;;6.53;3.55;;;;;;;;;;5027790;28;20040;-56
2022/07/19 00:43:09;;;;;;;7.05;3.60;;;;;;;;;;5014887;28;20468;-59
2022/07/19 00:45:35;;;;;;;6.75;3.70;;;;;;;;;;5018480;28;20092;-58
2022/07/19 00:48:01;;;;;;;6.45;3.67;;;;;;;;;;5025749;28;20041;-59
2022/07/19 00:50:27;;;;;;;6.68;3.80;;;;;;;;;;5025968;28;20044;-59
2022/07/19 00:52:55;;;;;;;7.20;3.85;;;;;;;;;;5025989;28;20017;-59
2022/07/19 00:55:22;;;;;;;6.47;3.63;;;;;;;;;;5025642;28;20072;-59
2022/07/19 00:57:48;;;;;;;7.57;3.58;;;;;;;;;;5029335;28;20072;-58
2022/07/19 01:00:15;;;;;;;6.32;3.72;;;;;;;;;;5024404;28;20040;-59
2022/07/19 01:02:41;;;;;;;6.00;4.15;;;;;;;;;;5021572;28;20025;-58
2022/07/19 01:05:08;;;;;;;7.20;3.97;;;;;;;;;;5025865;28;20473;-57
2022/07/19 01:07:40;;;;;;;8.48;3.53;;;;;;;;;;5030018;28;20029;-59
2022/07/19 01:10:06;;;;;;;5.65;3.28;;;;;;;;;;5020728;28;20032;-59
2022/07/19 01:12:33;;;;;;;8.57;4.00;;;;;;;;;;5023099;28;20040;-58
2022/07/19 01:14:59;;;;;;;7.55;3.45;;;;;;;;;;5030211;28;20481;-58
2022/07/19 01:17:25;;;;;;;5.32;3.50;;;;;;;;;;5029878;28;20112;-58
2022/07/19 01:19:51;;;;;;;9.20;3.70;;;;;;;;;;5030225;28;20037;-58
2022/07/19 01:22:17;;;;;;;6.22;3.63;;;;;;;;;;5028189;28;20045;-58
2022/07/19 01:24:43;;;;;;;6.72;3.63;;;;;;;;;;5025482;28;20036;-59
2022/07/19 01:27:09;;;;;;;6.50;3.80;;;;;;;;;;5032565;28;20037;-61
2022/07/19 01:29:36;;;;;;;6.72;3.45;;;;;;;;;;5032779;28;20036;-60
2022/07/19 01:32:03;;;;;;;5.03;3.47;;;;;;;;;;5031454;28;20030;-59
2022/07/19 01:34:29;;;;;;;5.88;3.60;;;;;;;;;;5034124;28;20040;-60
2022/07/19 01:36:55;;;;;;;7.93;3.75;;;;;;;;;;5023224;28;20057;-61
2022/07/19 01:39:21;;;;;;;6.03;3.58;;;;;;;;;;5026072;28;20071;-58
2022/07/19 01:41:47;;;;;;;7.05;3.65;;;;;;;;;;5026263;28;20072;-58
2022/07/19 01:44:13;;;;;;;4.72;3.45;;;;;;;;;;5034077;28;20120;-60
2022/07/19 01:46:38;;;;;;;6.38;3.70;;;;;;;;;;5031886;28;20033;-59
2022/07/19 01:49:05;;;;;;;5.25;3.53;;;;;;;;;;5031806;28;20045;-59
2022/07/19 01:51:31;;;;;;;5.57;3.33;;;;;;;;;;5033191;28;20527;-60
2022/07/19 01:53:57;;;;;;;9.57;3.67;;;;;;;;;;5017655;28;20025;-60
2022/07/19 01:56:23;;;;;;;6.18;3.20;;;;;;;;;;5035428;28;20546;-60
2022/07/19 01:58:49;;;;;;;8.00;3.30;;;;;;;;;;5030821;28;20030;-60
2022/07/19 02:01:15;;;;;;;8.13;3.40;;;;;;;;;;5031186;28;20064;-60
2022/07/19 02:03:41;;;;;;;10.32;3.22;;;;;;;;;;5030951;28;20048;-60
2022/07/19 02:06:07;;;;;;;6.85;3.88;;;;;;;;;;5031610;28;20033;-60
2022/07/19 02:08:33;;;;;;;6.00;3.42;;;;;;;;;;5019497;28;20071;-60
2022/07/19 02:10:59;;;;;;;6.22;3.80;;;;;;;;;;5023089;28;20049;-59
2022/07/19 02:13:25;;;;;;;5.63;3.50;;;;;;;;;;5037025;28;20155;-60
2022/07/19 02:15:51;;;;;;;7.10;3.92;;;;;;;;;;5030564;28;20036;-59
2022/07/19 02:18:17;;;;;;;5.75;3.63;;;;;;;;;;5021381;28;20063;-60
2022/07/19 02:20:43;;;;;;;5.90;3.15;;;;;;;;;;5029972;28;20113;-59
2022/07/19 02:23:09;;;;;;;4.95;3.33;;;;;;;;;;5028476;28;20054;-60
2022/07/19 02:25:35;;;;;;;5.47;3.63;;;;;;;;;;5032055;28;20377;-59
2022/07/19 02:28:01;;;;;;;5.70;3.53;;;;;;;;;;5031645;28;20037;-59
2022/07/19 02:30:28;;;;;;;6.57;3.45;;;;;;;;;;5036434;28;20033;-58
2022/07/19 02:32:53;;;;;;;5.50;3.67;;;;;;;;;;5024945;28;20503;-59
2022/07/19 02:35:19;;;;;;;6.35;4.03;;;;;;;;;;5031329;28;20052;-59
2022/07/19 02:37:45;;;;;;;6.78;3.47;;;;;;;;;;5030452;28;20021;-59
2022/07/19 02:40:12;;;;;;;7.05;3.28;;;;;;;;;;5027982;28;20035;-59
2022/07/19 02:42:38;;;;;;;4.55;3.30;;;;;;;;;;5027962;28;20083;-59
2022/07/19 02:45:04;;;;;;;6.90;3.30;;;;;;;;;;5029255;28;20382;-59
2022/07/19 02:47:30;;;;;;;8.75;3.60;;;;;;;;;;5031307;28;20086;-58
2022/07/19 02:49:56;;;;;;;5.13;3.30;;;;;;;;;;5020292;28;20550;-59
2022/07/19 02:52:22;;;;;;;6.57;3.42;;;;;;;;;;5022308;28;20021;-58
2022/07/19 02:54:48;;;;;;;7.03;3.67;;;;;;;;;;5029654;28;20029;-59
2022/07/19 02:57:14;;;;;;;5.55;3.38;;;;;;;;;;5017199;28;20547;-60
2022/07/19 02:59:40;;;;;;;6.45;3.17;;;;;;;;;;5022387;28;20033;-59
2022/07/19 03:02:06;;;;;;;6.38;3.78;;;;;;;;;;5030753;28;20037;-60
2022/07/19 03:04:32;;;;;;;8.75;4.05;;;;;;;;;;5030580;28;20093;-57
2022/07/19 03:06:58;;;;;;;6.45;3.67;;;;;;;;;;5019802;28;20037;-60
2022/07/19 03:09:24;;;;;;;7.00;3.72;;;;;;;;;;5029088;28;20076;-59
2022/07/19 03:11:50;;;;;;;7.63;4.13;;;;;;;;;;5021218;28;20490;-59
2022/07/19 03:14:16;;;;;;;6.30;3.30;;;;;;;;;;5027535;28;20444;-59
2022/07/19 03:16:42;;;;;;;7.35;3.60;;;;;;;;;;5029759;28;20034;-59
2022/07/19 03:19:08;;;;;;;7.03;3.42;;;;;;;;;;5017068;28;20025;-59
2022/07/19 03:21:34;;;;;;;6.38;4.18;;;;;;;;;;5015311;28;20026;-59
2022/07/19 03:24:00;;;;;;;5.55;3.60;;;;;;;;;;5025645;28;20033;-59
2022/07/19 03:26:26;;;;;;;5.85;3.28;;;;;;;;;;5027274;28;20385;-59
2022/07/19 03:28:52;;;;;;;5.55;2.88;;;;;;;;;;5031067;28;20033;-58
2022/07/19 03:31:18;;;;;;;4.82;3.22;;;;;;;;;;5020653;28;20026;-59
2022/07/19 03:33:44;;;;;;;6.18;3.63;;;;;;;;;;5027451;28;20053;-60
2022/07/19 03:36:10;;;;;;;7.07;3.85;;;;;;;;;;5029644;28;20425;-60
2022/07/19 03:38:36;;;;;;;6.07;3.53;;;;;;;;;;5019571;28;20041;-59
2022/07/19 03:41:03;;;;;;;6.55;3.40;;;;;;;;;;5028117;28;20029;-58
2022/07/19 03:43:29;;;;;;;8.02;4.05;;;;;;;;;;5025232;28;20029;-59
2022/07/19 03:45:55;;;;;;;6.30;3.63;;;;;;;;;;5026247;28;20095;-58
2022/07/19 03:48:21;;;;;;;8.60;3.38;;;;;;;;;;5019698;28;20014;-60
2022/07/19 03:50:47;;;;;;;6.68;3.17;;;;;;;;;;5019736;28;20018;-59
2022/07/19 03:53:13;;;;;;;5.07;3.10;;;;;;;;;;5024623;28;20075;-59
2022/07/19 03:55:39;;;;;;;4.93;3.38;;;;;;;;;;5025423;28;20030;-60
2022/07/19 03:58:05;;;;;;;4.45;2.80;;;;;;;;;;5020374;28;20048;-58
2022/07/19 04:00:32;;;;;;;7.28;3.60;;;;;;;;;;5025819;28;20025;-59
2022/07/19 04:02:58;;;;;;;6.90;3.58;;;;;;;;;;5025726;28;20393;-59
2022/07/19 04:05:24;;;;;;;5.32;3.28;;;;;;;;;;5027187;28;20064;-58
2022/07/19 04:07:50;;;;;;;5.25;3.15;;;;;;;;;;5011958;28;20064;-59
2022/07/19 04:10:16;;;;;;;6.57;3.78;;;;;;;;;;5023028;28;20486;-59
2022/07/19 04:12:42;;;;;;;6.03;3.45;;;;;;;;;;5020048;28;20116;-59
2022/07/19 04:15:09;;;;;;;6.75;3.42;;;;;;;;;;5036130;28;20104;-59
2022/07/19 04:17:35;;;;;;;4.57;3.40;;;;;;;;;;5025021;28;20757;-60
2022/07/19 04:20:01;;;;;;;7.45;3.88;;;;;;;;;;5023690;28;20021;-60
2022/07/19 04:22:27;;;;;;;5.72;3.10;;;;;;;;;;5029324;28;20568;-59
2022/07/19 04:24:53;;;;;;;7.15;4.30;;;;;;;;;;5022154;28;20421;-59
2022/07/19 04:27:19;;;;;;;6.35;3.45;;;;;;;;;;5015853;28;20030;-59
2022/07/19 04:29:45;;;;;;;6.55;3.40;;;;;;;;;;5024573;28;20030;-59
2022/07/19 04:32:11;;;;;;;9.25;3.67;;;;;;;;;;5028872;28;20400;-60
2022/07/19 04:34:37;;;;;;;6.22;3.20;;;;;;;;;;5028832;28;20028;-58
2022/07/19 04:37:03;;;;;;;6.10;3.13;;;;;;;;;;5024686;28;20037;-59
2022/07/19 04:39:29;;;;;;;4.40;3.35;;;;;;;;;;5028035;28;20481;-59
2022/07/19 04:41:55;;;;;;;3.97;2.85;;;;;;;;;;5029582;28;20030;-59
2022/07/19 04:44:21;;;;;;;5.60;3.58;;;;;;;;;;5029798;28;20036;-60
2022/07/19 04:46:47;;;;;;;8.15;3.88;;;;;;;;;;5025879;28;21819;-59
2022/07/19 04:49:13;;;;;;;5.22;3.33;;;;;;;;;;5024676;28;20083;-59
2022/07/19 04:51:39;;;;;;;5.22;3.65;;;;;;;;;;5032258;28;20464;-60
2022/07/19 04:54:05;;;;;;;5.82;3.40;;;;;;;;;;5032594;28;20030;-60
2022/07/19 04:56:31;;;;;;;7.70;3.72;;;;;;;;;;5029883;28;20052;-60
2022/07/19 04:58:57;;;;;;;5.40;3.45;;;;;;;;;;5028111;28;20041;-58
2022/07/19 05:01:23;;;;;;;4.85;3.17;;;;;;;;;;5024000;28;20029;-60
2022/07/19 05:03:49;;;;;;;6.45;3.55;;;;;;;;;;5034192;28;20033;-58
2022/07/19 05:06:15;;;;;;;4.72;3.45;;;;;;;;;;5030512;28;20048;-58
2022/07/19 05:08:41;;;;;;;8.15;3.90;;;;;;;;;;5026552;28;20545;-59
2022/07/19 05:11:06;;;;;;;7.07;3.00;;;;;;;;;;5017210;28;20120;-58
2022/07/19 05:13:32;;;;;;;5.28;2.97;;;;;;;;;;5028313;28;20034;-60
2022/07/19 05:15:58;;;;;;;5.38;2.60;;;;;;;;;;5030816;28;20500;-57
2022/07/19 05:18:24;;;;;;;5.22;3.10;;;;;;;;;;5023164;28;20107;-59
2022/07/19 05:20:50;;;;;;;7.30;3.55;;;;;;;;;;5027887;28;20470;-59
2022/07/19 05:23:16;;;;;;;5.32;3.15;;;;;;;;;;5023810;28;20413;-59
2022/07/19 05:25:42;;;;;;;3.58;2.55;;;;;;;;;;5031062;28;20033;-60
2022/07/19 05:28:08;;;;;;;9.23;3.17;;;;;;;;;;5031241;28;20536;-59
2022/07/19 05:30:35;;;;;;;8.10;3.10;;;;;;;;;;5027647;28;20140;-58
2022/07/19 05:33:00;;;;;;;4.22;2.90;;;;;;;;;;5023248;28;20030;-58
2022/07/19 05:35:26;;;;;;;4.80;2.97;;;;;;;;;;5020593;28;20060;-57
2022/07/19 05:37:52;;;;;;;4.45;3.08;;;;;;;;;;5028747;28;20025;-59
2022/07/19 05:40:19;;;;;;;5.60;3.13;;;;;;;;;;5028124;28;20033;-59
2022/07/19 05:42:44;;;;;;;3.53;2.55;;;;;;;;;;5029277;28;20061;-60
2022/07/19 05:45:11;;;;;;;5.07;2.65;;;;;;;;;;5021404;28;20033;-59
2022/07/19 05:47:37;;;;;;;4.28;2.47;;;;;;;;;;5023301;28;20133;-58
2022/07/19 05:50:03;;;;;;;3.70;2.88;;;;;;;;;;5032019;28;20033;-59
2022/07/19 05:52:29;;;;;;;4.53;2.97;;;;;;;;;;5021032;28;20545;-59
2022/07/19 05:54:55;;;;;;;4.35;2.47;;;;;;;;;;5019944;28;20136;-59
2022/07/19 05:57:21;;;;;;;4.43;2.25;;;;;;;;;;5032340;28;20080;-59
2022/07/19 05:59:47;;;;;;;5.47;2.50;;;;;;;;;;5024151;28;20037;-59
2022/07/19 06:02:13;;;;;;;4.38;2.47;;;;;;;;;;5028339;28;20025;-59
2022/07/19 06:04:39;;;;;;;4.93;2.40;;;;;;;;;;5030873;28;20037;-60
2022/07/19 06:07:05;;;;;;;4.97;2.45;;;;;;;;;;5031866;28;20473;-59
2022/07/19 06:09:31;;;;;;;6.53;2.67;;;;;;;;;;5029406;28;20072;-58
2022/07/19 06:11:57;;;;;;;4.70;2.55;;;;;;;;;;5032160;28;20100;-59
2022/07/19 06:14:22;;;;;;;4.07;2.30;;;;;;;;;;5034732;28;20447;-59
2022/07/19 06:16:48;;;;;;;4.63;2.10;;;;;;;;;;5028929;28;20076;-58
2022/07/19 06:19:14;;;;;;;3.65;2.25;;;;;;;;;;5019910;28;20052;-59
2022/07/19 06:21:41;;;;;;;4.68;2.30;;;;;;;;;;5025176;28;20036;-59
2022/07/19 06:24:07;;;;;;;4.72;2.53;;;;;;;;;;5030817;28;20029;-59
2022/07/19 06:26:33;;;;;;;10.23;3.53;;;;;;;;;;5030722;28;20175;-59
2022/07/19 06:28:59;;;;;;;3.88;2.35;;;;;;;;;;5027661;28;20021;-59
2022/07/19 06:31:25;;;;;;;4.32;2.00;;;;;;;;;;5030157;28;20504;-59
2022/07/19 06:33:52;;;;;;;3.35;2.10;;;;;;;;;;5032511;28;20021;-59
2022/07/19 06:36:19;;;;;;;3.47;2.17;;;;;;;;;;5029692;28;20032;-60
2022/07/19 06:38:45;;;;;;;7.97;2.53;;;;;;;;;;5024124;28;20033;-59
2022/07/19 06:41:12;;;;;;;9.88;2.13;;;;;;;;;;5028832;28;20076;-60
2022/07/19 06:43:38;;;;;;;3.97;1.92;;;;;;;;;;5024849;28;20477;-58
2022/07/19 06:46:04;;;;;;;3.45;2.05;;;;;;;;;;5028095;28;20112;-59
2022/07/19 06:48:30;;;;;;;3.22;2.28;;;;;;;;;;5026283;28;20079;-59
2022/07/19 06:50:56;;;;;;;3.15;1.70;;;;;;;;;;5021713;28;20112;-60
2022/07/19 06:53:22;;;;;;;3.88;2.10;;;;;;;;;;5025446;28;20036;-59
2022/07/19 06:55:48;;;;;;;5.13;2.25;;;;;;;;;;5025564;28;20488;-58
2022/07/19 06:58:14;;;;;;;5.38;2.40;;;;;;;;;;5030831;28;20596;-59
2022/07/19 07:00:41;;;;;;;6.95;2.00;;;;;;;;;;5028623;28;20421;-59
2022/07/19 07:03:06;;;;;;;3.95;2.17;;;;;;;;;;5032116;28;20120;-59
2022/07/19 07:05:33;;;;;;;4.70;2.08;;;;;;;;;;5030893;28;20105;-60
2022/07/19 07:07:59;;;;;;;4.57;2.42;;;;;;;;;;5031997;28;20045;-58
2022/07/19 07:10:25;;;;;;;5.20;2.17;;;;;;;;;;5026489;28;20033;-58
2022/07/19 07:12:51;;;;;;;6.10;2.38;;;;;;;;;;5024721;28;20629;-59
2022/07/19 07:15:17;;;;;;;6.97;2.40;;;;;;;;;;5031996;28;20061;-59
2022/07/19 07:17:43;;;;;;;5.47;2.05;;;;;;;;;;5020862;28;20084;-60
2022/07/19 07:20:09;;;;;;;3.85;2.08;;;;;;;;;;5030021;28;20068;-59
2022/07/19 07:22:35;;;;;;;6.53;1.90;;;;;;;;;;5030706;28;20033;-60
2022/07/19 07:25:02;;;;;;;3.35;1.83;;;;;;;;;;5029629;28;20473;-60
2022/07/19 07:27:28;;;;;;;6.80;2.15;;;;;;;;;;5026580;28;20028;-59
2022/07/19 07:29:54;;;;;;;5.15;2.05;;;;;;;;;;5030200;28;20033;-59
2022/07/19 07:32:20;;;;;;;4.65;2.00;;;;;;;;;;5033270;28;20049;-60
2022/07/19 07:34:46;;;;;;;4.72;2.20;;;;;;;;;;5030582;28;20014;-59
2022/07/19 07:37:12;;;;;;;4.43;2.13;;;;;;;;;;5030172;28;20457;-60
2022/07/19 07:39:38;;;;;;;5.78;2.00;;;;;;;;;;5039692;28;20112;-60
2022/07/19 07:42:04;;;;;;;4.20;1.40;;;;;;;;;;5032921;28;20034;-59
2022/07/19 07:44:31;;;;;;;3.40;1.80;;;;;;;;;;5030288;28;20022;-60
2022/07/19 07:47:00;;;;;;;2.65;1.70;;;;;;;;;;5027190;28;20061;-60
2022/07/19 07:49:26;;;;;;;4.43;1.83;;;;;;;;;;5013567;28;20061;-59
2022/07/19 07:51:52;;;;;;;5.57;1.58;;;;;;;;;;5040713;28;20024;-59
2022/07/19 07:54:18;;;;;;;8.02;1.83;;;;;;;;;;5030423;28;20113;-60
2022/07/19 07:56:44;;;;;;;6.15;1.90;;;;;;;;;;5031314;28;20099;-60
2022/07/19 07:59:10;;;;;;;2.97;1.65;;;;;;;;;;5026819;28;20136;-60
2022/07/19 08:01:37;;;;;;;3.58;1.45;;;;;;;;;;5028854;28;20029;-58
2022/07/19 08:04:03;;;;;;;4.82;1.40;;;;;;;;;;5035642;28;20037;-59
2022/07/19 08:06:29;;;;;;;4.22;1.60;;;;;;;;;;5031615;28;20029;-60
2022/07/19 08:08:55;;;;;;;2.35;1.20;;;;;;;;;;5035620;28;20038;-60
2022/07/19 08:11:21;;;;;;;4.35;1.40;;;;;;;;;;5030570;28;20394;-60
2022/07/19 08:13:47;;;;;;;2.78;1.30;;;;;;;;;;5023416;28;20048;-60
2022/07/19 08:16:13;;;;;;;3.05;1.42;;;;;;;;;;5021023;28;20480;-60
2022/07/19 08:18:39;;;;;;;4.55;1.33;;;;;;;;;;5024990;28;20037;-60
2022/07/19 08:21:05;;;;;;;4.18;1.80;;;;;;;;;;5023099;28;20049;-60
2022/07/19 08:23:31;;;;;;;4.45;1.55;;;;;;;;;;5030369;28;20040;-60
2022/07/19 08:25:57;;;;;;;3.10;1.30;;;;;;;;;;5023391;28;20029;-59
2022/07/19 08:28:23;;;;;;;4.47;1.65;;;;;;;;;;5030274;28;20104;-59
2022/07/19 08:30:49;;;;;;;7.35;1.70;;;;;;;;;;5033649;28;20029;-59
2022/07/19 08:33:15;;;;;;;4.80;1.70;;;;;;;;;;5030332;28;20045;-60
2022/07/19 08:35:41;;;;;;;4.03;1.33;;;;;;;;;;5021638;28;20060;-59
2022/07/19 08:38:07;;;;;;;5.28;2.33;;;;;;;;;;5026942;28;20401;-60
2022/07/19 08:40:34;;;;;;;4.25;1.55;;;;;;;;;;5026560;28;20036;-59
2022/07/19 08:43:02;;;;;;;4.65;1.73;;;;;;;;;;5023484;28;20084;-59
2022/07/19 08:45:30;;;;;;;4.47;1.73;;;;;;;;;;5021324;28;20032;-59
2022/07/19 08:47:57;;;;;;;3.35;1.52;;;;;;;;;;5028148;28;20057;-60
2022/07/19 08:50:25;;;;;;;7.97;1.90;;;;;;;;;;5027660;28;20105;-60
2022/07/19 08:52:51;;;;;;;8.88;1.55;;;;;;;;;;5037951;28;20029;-60
2022/07/19 08:55:17;;;;;;;9.02;1.98;;;;;;;;;;5024461;28;20101;-60
2022/07/19 08:58:01;;;;;;;5.32;1.65;;;;;;;;;;5026876;28;20049;-60
2022/07/19 09:00:28;;;;;;;4.70;1.83;;;;;;;;;;5031245;28;20044;-58
2022/07/19 09:03:01;;;;;;;6.18;1.90;;;;;;;;;;5023789;28;20029;-59
2022/07/19 09:05:27;;;;;;;6.15;1.73;;;;;;;;;;5026897;28;20080;-58
2022/07/19 09:08:23;;;;;;;3.63;1.83;;;;;;;;;;5022641;28;20042;-59
2022/07/19 09:13:34;;;;;;;14.23;1.88;;;;;;;;;;5026633;28;20036;-59
2022/07/19 09:16:00;;;;;;;5.53;1.50;;;;;;;;;;5040072;28;20030;-59
2022/07/19 09:18:26;;;;;;;3.10;1.77;;;;;;;;;;5021970;28;20040;-59
2022/07/19 09:20:56;;;;;;;3.63;1.38;;;;;;;;;;5027838;28;20489;-59
2022/07/19 09:23:22;;;;;;;3.28;1.75;;;;;;;;;;5028325;28;20032;-59
2022/07/19 09:25:52;;;;;;;5.18;1.77;;;;;;;;;;5026562;28;20392;-60
2022/07/19 09:28:19;;;;;;;4.78;1.92;;;;;;;;;;5020083;28;20026;-60
2022/07/19 09:30:47;;;;;;;3.55;1.40;;;;;;;;;;5024343;28;20026;-59
2022/07/19 09:33:15;;;;;;;4.75;1.83;;;;;;;;;;5025684;28;20025;-59
2022/07/19 09:35:42;;;;;;;5.38;1.98;;;;;;;;;;5027772;28;20053;-59
2022/07/19 09:38:27;;;;;;;4.57;1.77;;;;;;;;;;5024436;28;20025;-59
2022/07/19 09:41:25;;;;;;;3.25;1.35;;;;;;;;;;5041949;28;20048;-59
2022/07/19 09:43:53;;;;;;;5.55;1.48;;;;;;;;;;5029410;28;20038;-60
2022/07/19 09:46:32;;;;;;;3.90;1.63;;;;;;;;;;5016470;28;20053;-60
2022/07/19 09:49:03;;;;;;;5.72;1.55;;;;;;;;;;5017595;28;20034;-59
2022/07/19 09:51:29;;;;;;;3.35;1.45;;;;;;;;;;5018768;28;20612;-60
2022/07/19 09:53:56;;;;;;;3.17;1.58;;;;;;;;;;5024929;28;20159;-59
2022/07/19 09:56:22;;;;;;;5.65;1.77;;;;;;;;;;5033467;28;20061;-60
2022/07/19 09:58:49;;;;;;;4.78;1.52;;;;;;;;;;5024220;28;20540;-60
2022/07/19 10:01:15;;;;;;;4.50;1.67;;;;;;;;;;5022790;28;20038;-60
2022/07/19 10:03:42;;;;;;;4.38;1.80;;;;;;;;;;5025965;28;20036;-60
2022/07/19 10:06:07;;;;;;;5.72;1.65;;;;;;;;;;5029863;28;20152;-60
2022/07/19 10:08:33;;;;;;;4.05;1.75;;;;;;;;;;5037815;28;20021;-59
2022/07/19 10:10:59;;;;;;;4.35;1.60;;;;;;;;;;5028256;28;20096;-60
2022/07/19 10:13:26;;;;;;;2.95;1.23;;;;;;;;;;5026642;28;20113;-60
2022/07/19 10:15:54;;;;;;;5.35;1.50;;;;;;;;;;5031588;28;20038;-59
2022/07/19 10:18:26;;;;;;;4.65;1.75;;;;;;;;;;5032889;28;20791;-59
2022/07/19 10:20:52;;;;;;;2.25;1.50;;;;;;;;;;5032457;28;20037;-60
2022/07/19 10:23:26;;;;;;;7.43;1.98;;;;;;;;;;5030209;28;20025;-60
2022/07/19 10:25:52;;;;;;;2.88;1.48;;;;;;;;;;5035152;28;20029;-60
2022/07/19 10:28:30;;;;;;;2.42;1.50;;;;;;;;;;5023707;28;20029;-58
2022/07/19 10:30:56;;;;;;;2.70;1.38;;;;;;;;;;5029110;28;20033;-59
2022/07/19 10:33:30;;;;;;;4.35;1.35;;;;;;;;;;5031215;28;20021;-58
2022/07/19 10:35:56;;;;;;;4.00;1.77;;;;;;;;;;5030624;28;20033;-60
2022/07/19 10:38:22;;;;;;;4.22;1.52;;;;;;;;;;5019570;28;20053;-59
2022/07/19 10:40:56;;;;;;;12.50;1.80;;;;;;;;;;5021152;28;20083;-60
2022/07/19 10:43:23;;;;;;;3.80;1.55;;;;;;;;;;5036900;28;20029;-59
2022/07/19 10:46:01;;;;;;;4.45;1.73;;;;;;;;;;5029448;28;20084;-60
2022/07/19 10:48:46;;;;;;;6.13;1.60;;;;;;;;;;5020710;28;20017;-60
2022/07/19 10:51:13;;;;;;;4.05;1.15;;;;;;;;;;5024335;28;20022;-59
2022/07/19 10:53:38;;;;;;;4.95;1.95;;;;;;;;;;5029329;28;20021;-59
2022/07/19 10:56:24;;;;;;;6.00;1.45;;;;;;;;;;5023125;28;20531;-60
2022/07/19 10:59:00;;;;;;;3.90;1.48;;;;;;;;;;5028187;28;20106;-60
2022/07/19 11:01:28;;;;;;;4.25;1.40;;;;;;;;;;5029132;28;20029;-60
2022/07/19 11:03:55;;;;;;;6.85;1.70;;;;;;;;;;5018905;28;20064;-60
2022/07/19 11:06:22;;;;;;;5.05;1.67;;;;;;;;;;5023171;28;20404;-60
2022/07/19 11:08:48;;;;;;;4.80;1.60;;;;;;;;;;5025530;28;20484;-60
2022/07/19 11:11:19;;;;;;;3.88;1.30;;;;;;;;;;5022835;28;20029;-60
2022/07/19 11:13:46;;;;;;;3.17;1.67;;;;;;;;;;5028449;28;20544;-60
2022/07/19 11:16:13;;;;;;;2.33;1.20;;;;;;;;;;5030222;28;20084;-60
2022/07/19 11:18:39;;;;;;;4.68;1.48;;;;;;;;;;5025653;28;20432;-60
2022/07/19 11:21:06;;;;;;;6.93;1.50;;;;;;;;;;5028446;28;20026;-59
2022/07/19 11:23:33;;;;;;;2.25;1.30;;;;;;;;;;5031491;28;20404;-60
2022/07/19 11:26:17;;;;;;;4.60;1.40;;;;;;;;;;5016352;28;20030;-59
2022/07/19 11:28:44;;;;;;;3.35;1.50;;;;;;;;;;5019386;28;20497;-60
2022/07/19 11:31:16;;;;;;;5.53;1.58;;;;;;;;;;5028216;28;20037;-60
2022/07/19 11:33:43;;;;;;;5.63;1.43;;;;;;;;;;5029792;28;20026;-59
2022/07/19 11:36:10;;;;;;;12.55;1.40;;;;;;;;;;5031647;28;20037;-60
2022/07/19 11:38:46;;;;;;;4.32;1.88;;;;;;;;;;5028622;28;20112;-61
2022/07/19 11:41:13;;;;;;;4.88;1.60;;;;;;;;;;5014590;28;20065;-59
2022/07/19 11:43:39;;;;;;;2.92;1.30;;;;;;;;;;5016088;28;20083;-59
2022/07/19 11:46:05;;;;;;;3.60;1.67;;;;;;;;;;5031860;28;20028;-59
2022/07/19 11:48:31;;;;;;;4.13;1.50;;;;;;;;;;5021540;28;20097;-58
2022/07/19 11:51:01;;;;;;;8.18;1.42;;;;;;;;;;5026342;28;20018;-59
2022/07/19 11:53:27;;;;;;;3.55;1.50;;;;;;;;;;5027948;28;20105;-59
2022/07/19 11:55:53;;;;;;;4.22;1.20;;;;;;;;;;5024578;28;20355;-60
2022/07/19 11:58:19;;;;;;;3.42;1.40;;;;;;;;;;5020280;28;20044;-60
2022/07/19 12:00:45;;;;;;;2.75;1.30;;;;;;;;;;5022246;28;20026;-60
2022/07/19 12:03:15;;;;;;;3.00;1.23;;;;;;;;;;5031389;28;20028;-59
2022/07/19 12:05:53;;;;;;;3.65;1.40;;;;;;;;;;5029853;28;20052;-59
2022/07/19 12:08:19;;;;;;;3.58;1.17;;;;;;;;;;5016913;28;20035;-59
2022/07/19 12:10:48;;;;;;;4.97;1.67;;;;;;;;;;5027518;28;20091;-59
2022/07/19 12:13:16;;;;;;;4.20;1.23;;;;;;;;;;5030045;28;20064;-59
2022/07/19 12:15:56;;;;;;;4.00;1.42;;;;;;;;;;5032982;28;20033;-59
2022/07/19 12:18:23;;;;;;;5.78;1.23;;;;;;;;;;5020635;28;20030;-60
2022/07/19 12:21:07;;;;;;;2.13;1.35;;;;;;;;;;5024079;28;20694;-60
2022/07/19 12:23:33;;;;;;;2.17;1.35;;;;;;;;;;5020634;28;20444;-60
2022/07/19 12:26:04;;;;;;;2.55;1.35;;;;;;;;;;5030102;28;20036;-60
2022/07/19 12:28:30;;;;;;;3.40;1.42;;;;;;;;;;5025892;28;20033;-60
2022/07/19 12:31:03;;;;;;;2.45;1.10;;;;;;;;;;5030073;28;20029;-59
2022/07/19 12:33:29;;;;;;;1.60;1.00;;;;;;;;;;5026483;28;20029;-60
2022/07/19 12:35:55;;;;;;;6.47;1.50;;;;;;;;;;5029676;28;20038;-59
2022/07/19 12:38:28;;;;;;;4.95;1.25;;;;;;;;;;5025736;28;20026;-59
2022/07/19 12:41:04;;;;;;;2.28;1.52;;;;;;;;;;5025021;28;20037;-59
2022/07/19 12:43:30;;;;;;;3.78;1.38;;;;;;;;;;5021082;28;20035;-59
2022/07/19 12:46:01;;;;;;;3.90;1.38;;;;;;;;;;5027814;28;20389;-59
2022/07/19 12:48:27;;;;;;;3.00;1.50;;;;;;;;;;5027317;28;20101;-59
2022/07/19 12:50:53;;;;;;;5.25;1.33;;;;;;;;;;5030463;28;20026;-59
2022/07/19 12:53:20;;;;;;;4.00;1.23;;;;;;;;;;5028203;28;20030;-60
2022/07/19 12:55:46;;;;;;;3.38;1.67;;;;;;;;;;5028658;28;20050;-59
2022/07/19 12:58:13;;;;;;;3.50;1.40;;;;;;;;;;5025677;28;20128;-60
2022/07/19 13:00:41;;;;;;;4.88;1.33;;;;;;;;;;5025792;28;20104;-58
2022/07/19 13:03:07;;;;;;;4.72;1.63;;;;;;;;;;5030995;28;20029;-57
2022/07/19 13:05:34;;;;;;;3.22;1.40;;;;;;;;;;5024880;28;20101;-60
2022/07/19 13:08:01;;;;;;;5.35;1.63;;;;;;;;;;5009529;28;20587;-58
2022/07/19 13:10:31;;;;;;;3.13;1.40;;;;;;;;;;5008115;28;20076;-59
2022/07/19 13:12:57;;;;;;;4.40;1.23;;;;;;;;;;5020172;28;20025;-60
2022/07/19 13:15:23;;;;;;;3.00;1.35;;;;;;;;;;5033666;28;20629;-57
2022/07/19 13:17:49;;;;;;;5.07;1.55;;;;;;;;;;5018049;28;20037;-57
2022/07/19 13:20:16;;;;;;;5.25;1.75;;;;;;;;;;5014235;28;20194;-57
2022/07/19 13:22:42;;;;;;;2.60;1.70;;;;;;;;;;5011137;28;20113;-58
2022/07/19 13:25:10;;;;;;;2.72;1.30;;;;;;;;;;5029482;28;20473;-58
2022/07/19 13:27:36;;;;;;;4.72;1.50;;;;;;;;;;5030397;28;20524;-58
2022/07/19 13:30:02;;;;;;;3.88;1.15;;;;;;;;;;5024535;28;20071;-59
2022/07/19 13:32:28;;;;;;;3.00;1.48;;;;;;;;;;5030714;28;20025;-58
2022/07/19 13:34:54;;;;;;;2.75;1.52;;;;;;;;;;5034173;28;20539;-58
2022/07/19 13:37:20;;;;;;;3.15;1.30;;;;;;;;;;5045804;28;20148;-59
2022/07/19 13:39:46;;;;;;;4.90;1.33;;;;;;;;;;5033393;28;20109;-58
2022/07/19 13:42:12;;;;;;;3.25;1.50;;;;;;;;;;5032909;28;20123;-59
2022/07/19 13:44:38;;;;;;;2.67;1.10;;;;;;;;;;5031942;28;20021;-58
2022/07/19 13:47:04;;;;;;;2.92;1.23;;;;;;;;;;5027683;28;20037;-60
2022/07/19 13:49:30;;;;;;;1.52;1.05;;;;;;;;;;5029329;28;20474;-58
2022/07/19 13:51:56;;;;;;;2.70;1.35;;;;;;;;;;5030597;28;20634;-58
2022/07/19 13:54:22;;;;;;;3.00;1.15;;;;;;;;;;5025265;28;20030;-58
2022/07/19 13:56:48;;;;;;;5.88;1.40;;;;;;;;;;5032570;28;20481;-58
2022/07/19 13:59:14;;;;;;;5.40;1.35;;;;;;;;;;5031622;28;20025;-58
2022/07/19 14:01:40;;;;;;;6.88;1.48;;;;;;;;;;5029175;28;20029;-58
2022/07/19 14:04:06;;;;;;;4.35;1.42;;;;;;;;;;5026882;28;20030;-59
2022/07/19 14:06:32;;;;;;;3.42;1.35;;;;;;;;;;5029550;28;20037;-57
2022/07/19 14:08:58;;;;;;;2.78;1.10;;;;;;;;;;5024195;28;20045;-59
2022/07/19 14:11:24;;;;;;;3.33;1.50;;;;;;;;;;5030998;28;20025;-59
2022/07/19 14:13:50;;;;;;;7.82;1.23;;;;;;;;;;5027878;28;20026;-58
2022/07/19 14:16:16;;;;;;;5.80;1.05;;;;;;;;;;5030064;28;20052;-58
2022/07/19 14:18:42;;;;;;;5.60;1.00;;;;;;;;;;5028924;28;20431;-58
2022/07/19 14:21:08;;;;;;;2.95;0.80;;;;;;;;;;5030810;28;20025;-58
2022/07/19 14:23:34;;;;;;;2.25;1.02;;;;;;;;;;5027795;28;20522;-59
2022/07/19 14:26:00;;;;;;;5.68;1.17;;;;;;;;;;5041243;28;20033;-58
2022/07/19 14:28:26;;;;;;;2.92;0.80;;;;;;;;;;5029160;28;20035;-57
2022/07/19 14:30:52;;;;;;;2.25;0.80;;;;;;;;;;5033341;28;20030;-59
2022/07/19 14:33:18;;;;;;;1.38;0.65;;;;;;;;;;5026760;28;20400;-58
2022/07/19 14:35:44;;;;;;;2.55;0.90;;;;;;;;;;5026302;28;20105;-58
2022/07/19 14:38:10;;;;;;;4.03;1.10;;;;;;;;;;5025202;28;20404;-59
2022/07/19 14:40:36;;;;;;;9.18;1.10;;;;;;;;;;5023797;28;20103;-57
2022/07/19 14:43:02;;;;;;;3.88;0.90;;;;;;;;;;5038053;28;20024;-60
2022/07/19 14:45:28;;;;;;;2.70;0.93;;;;;;;;;;5032402;28;20496;-58